Time;durP1;ratioP1;P1;durP2;ratioP2;P2;SDS_P1;SDS_P2;PMS_P1;PMS_P2;Temp;Humidity;BMP_temperature;BMP_pressure;BME280_temperature;BME280_humidity;BME280_pressure;Samples;Min_cycle;Max_cycle;Signal;HPM_P1;HPM_P2
2024/03/07 00:00:45;;;;;;;60.88;25.58;;;;;;;8.92;55.64;102697.59;4942183;28;96767;-89
2024/03/07 00:03:20;;;;;;;62.15;23.70;;;;;;;8.92;55.68;102705.41;4925923;28;96745;-89
2024/03/07 00:06:05;;;;;;;67.32;25.05;;;;;;;8.90;55.76;102707.03;4925536;28;100707;-89
2024/03/07 00:08:31;;;;;;;61.60;25.65;;;;;;;8.90;55.72;102699.25;4926348;28;100166;-89
2024/03/07 00:10:56;;;;;;;62.65;26.98;;;;;;;8.89;55.87;102702.66;4960898;28;96598;-90
2024/03/07 00:13:22;;;;;;;58.00;24.88;;;;;;;8.91;55.97;102702.72;4927183;28;96913;-89
2024/03/07 00:15:47;;;;;;;59.47;23.38;;;;;;;8.92;55.97;102701.91;4918516;28;100687;-90
2024/03/07 00:18:15;;;;;;;59.90;25.27;;;;;;;8.94;55.87;102705.47;4937285;28;97664;-90
2024/03/07 00:20:42;;;;;;;62.20;26.63;;;;;;;8.92;55.78;102700.19;4943074;28;96609;-89
2024/03/07 00:23:08;;;;;;;59.63;26.35;;;;;;;8.91;55.83;102708.84;4943698;28;96632;-91
2024/03/07 00:25:34;;;;;;;60.85;26.40;;;;;;;8.90;55.83;102707.03;4941974;28;100711;-88
2024/03/07 00:28:02;;;;;;;63.78;25.02;;;;;;;8.88;56.05;102707.81;4942120;28;100124;-89
2024/03/07 00:30:36;;;;;;;59.67;25.10;;;;;;;8.85;55.72;102708.53;4942091;28;96989;-87
2024/03/07 00:33:02;;;;;;;58.75;23.70;;;;;;;8.84;55.80;102711.97;4939049;28;96705;-89
2024/03/07 00:35:27;;;;;;;58.67;22.98;;;;;;;8.81;55.77;102706.59;4943098;28;100556;-87
2024/03/07 00:37:53;;;;;;;52.67;25.02;;;;;;;8.78;55.75;102703.84;4933484;28;98562;-88
2024/03/07 00:40:19;;;;;;;57.03;23.73;;;;;;;8.75;55.79;102711.47;4920945;28;97055;-89
2024/03/07 00:42:44;;;;;;;61.25;25.63;;;;;;;8.70;55.85;102706.06;4919860;28;96791;-89
2024/03/07 00:45:10;;;;;;;61.08;24.98;;;;;;;8.66;55.60;102704.13;4936007;28;97562;-90
2024/03/07 00:47:35;;;;;;;59.03;23.27;;;;;;;8.62;55.86;102706.50;4929991;28;99175;-90
2024/03/07 00:50:01;;;;;;;51.70;23.67;;;;;;;8.57;55.93;102706.25;4934676;28;96822;-89
2024/03/07 00:52:27;;;;;;;55.20;23.52;;;;;;;8.54;55.89;102703.50;4927735;28;96915;-89
2024/03/07 00:54:52;;;;;;;53.38;23.50;;;;;;;8.50;55.83;102701.56;4961947;28;100140;-89
2024/03/07 00:57:18;;;;;;;57.53;25.75;;;;;;;8.45;55.96;102701.34;4980663;28;97533;-92
2024/03/07 00:59:43;;;;;;;58.05;24.65;;;;;;;8.42;55.88;102700.25;4939629;28;96820;-92
2024/03/07 01:02:09;;;;;;;61.17;24.00;;;;;;;8.37;56.00;102703.47;4919867;28;96809;-90
2024/03/07 01:04:34;;;;;;;52.53;21.75;;;;;;;8.34;56.09;102700.75;4919547;28;100046;-89
2024/03/07 01:07:01;;;;;;;54.95;24.27;;;;;;;8.30;56.09;102698.78;4942816;28;99867;-89
2024/03/07 01:09:28;;;;;;;55.20;22.90;;;;;;;8.26;55.93;102699.44;4941381;28;96630;-90
2024/03/07 01:11:54;;;;;;;53.75;21.77;;;;;;;8.20;56.02;102692.22;4925397;28;96628;-89
2024/03/07 01:14:20;;;;;;;57.63;23.50;;;;;;;8.18;56.17;102693.88;4936287;28;100538;-91
2024/03/07 01:16:47;;;;;;;69.43;26.35;;;;;;;8.17;56.21;102694.66;4935268;28;96951;-92
2024/03/07 01:19:15;;;;;;;59.83;25.65;;;;;;;8.15;56.24;102700.63;4918707;28;97022;-88
2024/03/07 01:21:40;;;;;;;64.57;26.23;;;;;;;8.12;56.27;102695.25;4933830;28;96912;-89
2024/03/07 01:24:06;;;;;;;59.45;25.92;;;;;;;8.09;56.49;102696.00;4936377;28;100523;-90
2024/03/07 01:26:33;;;;;;;60.65;25.48;;;;;;;8.08;56.45;102695.91;4938022;28;97586;-89
2024/03/07 01:28:59;;;;;;;57.67;23.52;;;;;;;8.07;56.46;102695.00;4925393;28;96908;-89
2024/03/07 01:31:25;;;;;;;60.45;26.33;;;;;;;8.05;56.32;102698.34;4937791;28;96969;-89
2024/03/07 01:33:51;;;;;;;62.90;25.05;;;;;;;8.01;56.34;102692.97;4927417;28;100215;-89
2024/03/07 01:36:17;;;;;;;66.90;26.42;;;;;;;7.97;56.66;102691.03;4930939;28;99956;-89
2024/03/07 01:38:43;;;;;;;64.28;24.98;;;;;;;7.96;56.59;102694.44;4945390;28;96739;-88
2024/03/07 01:41:08;;;;;;;59.20;24.27;;;;;;;7.94;56.61;102689.97;4956493;28;97028;-88
2024/03/07 01:43:34;;;;;;;60.38;25.75;;;;;;;7.92;56.41;102686.41;4941670;28;99303;-88
2024/03/07 01:46:00;;;;;;;57.95;23.80;;;;;;;7.88;56.38;102689.63;4957740;28;99647;-88
2024/03/07 01:48:28;;;;;;;62.10;24.55;;;;;;;7.85;56.43;102682.59;4920882;28;96840;-87
2024/03/07 01:50:58;;;;;;;61.35;23.92;;;;;;;7.80;56.54;102681.44;4927715;28;97130;-88
2024/03/07 01:53:25;;;;;;;64.07;25.58;;;;;;;7.76;56.35;102682.97;4906495;28;99540;-88
2024/03/07 01:55:53;;;;;;;63.05;23.38;;;;;;;7.73;56.56;102677.63;4945682;28;99359;-88
2024/03/07 01:58:20;;;;;;;61.42;23.40;;;;;;;7.70;56.67;102674.88;4932497;28;97079;-88
2024/03/07 02:00:46;;;;;;;61.15;25.45;;;;;;;7.68;56.63;102678.19;4916074;28;96941;-89
2024/03/07 02:03:13;;;;;;;58.28;24.58;;;;;;;7.64;56.44;102679.72;4905636;28;99264;-89
2024/03/07 02:05:39;;;;;;;57.38;23.48;;;;;;;7.61;56.58;102677.88;4929104;28;97679;-88
2024/03/07 02:08:05;;;;;;;55.38;23.63;;;;;;;7.56;56.51;102674.13;4941459;28;96702;-88
2024/03/07 02:11:07;;;;;;;59.63;22.65;;;;;;;7.52;56.54;102673.88;4959446;28;96887;-88
2024/03/07 02:13:32;;;;;;;59.15;22.55;;;;;;;7.51;56.64;102669.50;4924353;28;100517;-89
2024/03/07 02:15:58;;;;;;;57.40;23.65;;;;;;;7.48;56.42;102665.00;4915783;28;99021;-88
2024/03/07 02:18:24;;;;;;;55.35;24.25;;;;;;;7.47;56.81;102664.94;4934839;28;97184;-91
2024/03/07 02:20:50;;;;;;;59.25;24.83;;;;;;;7.43;56.70;102667.38;4925508;28;96973;-88
2024/03/07 02:23:16;;;;;;;60.78;24.83;;;;;;;7.42;56.85;102665.59;4941055;28;99166;-89
2024/03/07 02:25:41;;;;;;;62.83;25.67;;;;;;;7.40;56.91;102666.31;4942561;28;96712;-92
2024/03/07 02:28:07;;;;;;;68.32;25.70;;;;;;;7.40;57.25;102661.13;4939876;28;96522;-90
2024/03/07 02:30:32;;;;;;;72.90;26.60;;;;;;;7.42;57.38;102664.69;4941190;28;96572;-89
2024/03/07 02:33:06;;;;;;;65.22;27.13;;;;;;;7.46;57.28;102670.94;4924188;28;100746;-88
2024/03/07 02:48:38;;;;;;;68.18;25.95;;;;;;;7.65;58.26;102668.53;4932897;28;98139;-88
2024/03/07 02:51:07;;;;;;;70.55;27.13;;;;;;;7.72;58.20;102662.84;4914167;28;100612;-89
2024/03/07 02:53:33;;;;;;;70.55;26.08;;;;;;;7.79;58.31;102656.28;4913964;28;96860;-90
2024/03/07 02:55:59;;;;;;;72.03;26.00;;;;;;;7.85;58.43;102656.59;4901155;28;97056;-89
2024/03/07 02:58:24;;;;;;;71.22;27.70;;;;;;;7.92;58.32;102656.13;4911361;28;99748;-89
2024/03/07 03:01:00;;;;;;;66.43;24.13;;;;;;;7.98;58.55;102647.75;4898528;28;99895;-89
2024/03/07 03:03:26;;;;;;;70.90;27.95;;;;;;;8.03;58.46;102642.78;4918593;28;96977;-90
2024/03/07 03:05:52;;;;;;;67.50;25.83;;;;;;;8.08;58.30;102650.00;4915864;28;96831;-89
2024/03/07 03:08:17;;;;;;;67.80;28.23;;;;;;;8.12;58.41;102649.34;4921300;28;99183;-89
2024/03/07 03:10:44;;;;;;;73.78;26.05;;;;;;;8.15;57.98;102641.72;4920024;28;100329;-89
2024/03/07 03:13:10;;;;;;;67.95;29.10;;;;;;;8.17;58.01;102637.47;4920415;28;96641;-89
2024/03/07 03:15:37;;;;;;;66.30;25.98;;;;;;;8.20;57.84;102642.84;4920831;28;96808;-89
2024/03/07 03:18:05;;;;;;;62.80;25.25;;;;;;;8.19;57.64;102630.66;4920814;28;99947;-89
2024/03/07 03:20:33;;;;;;;66.13;27.75;;;;;;;8.18;57.84;102627.97;4904790;28;99767;-89
2024/03/07 03:23:00;;;;;;;63.10;25.35;;;;;;;8.17;57.57;102629.69;4921295;28;96581;-89
2024/03/07 03:25:26;;;;;;;68.63;28.92;;;;;;;8.16;57.60;102640.91;4914580;28;97226;-89
2024/03/07 03:27:52;;;;;;;63.55;26.55;;;;;;;8.15;57.79;102639.09;4937573;28;99286;-89
2024/03/07 03:30:18;;;;;;;64.38;26.13;;;;;;;8.15;57.76;102633.91;4901576;28;100137;-89
2024/03/07 03:32:48;;;;;;;70.38;28.60;;;;;;;8.15;57.73;102630.44;4914744;28;96783;-89
2024/03/07 03:35:15;;;;;;;65.93;27.08;;;;;;;8.16;57.48;102625.31;4896506;28;96902;-89
2024/03/07 03:37:44;;;;;;;70.63;26.85;;;;;;;8.15;57.48;102622.63;4914754;28;99570;-91
2024/03/07 03:40:10;;;;;;;68.55;28.15;;;;;;;8.14;57.72;102623.44;4899337;28;100269;-89
2024/03/07 03:42:37;;;;;;;71.05;27.15;;;;;;;8.12;57.54;102619.88;4911090;28;96745;-89
2024/03/07 03:45:08;;;;;;;69.35;28.27;;;;;;;8.09;57.69;102615.41;4914630;28;96783;-89
2024/03/07 03:47:35;;;;;;;71.00;28.67;;;;;;;8.06;57.49;102617.84;4895718;28;100344;-89
2024/03/07 03:50:05;;;;;;;72.50;26.50;;;;;;;8.05;57.65;102620.38;4907857;28;100193;-89
2024/03/07 03:52:31;;;;;;;65.60;27.75;;;;;;;8.03;57.74;102614.19;4931524;28;96894;-88
2024/03/07 03:54:58;;;;;;;65.70;26.88;;;;;;;8.00;57.68;102615.84;4944755;28;96870;-89
2024/03/07 03:57:28;;;;;;;64.78;26.08;;;;;;;7.98;57.57;102616.56;4915553;28;99201;-89
2024/03/07 03:59:54;;;;;;;62.90;26.02;;;;;;;7.94;57.58;102612.03;4923023;28;99555;-89
2024/03/07 04:02:21;;;;;;;64.93;26.52;;;;;;;7.91;57.53;102612.75;4939338;28;96692;-89
2024/03/07 04:04:48;;;;;;;64.70;24.90;;;;;;;7.89;57.61;102610.88;4930603;28;96850;-89
2024/03/07 04:07:15;;;;;;;60.10;26.40;;;;;;;7.86;57.73;102606.44;4921865;28;100240;-90
2024/03/07 04:09:42;;;;;;;68.13;25.55;;;;;;;7.84;57.58;102610.63;4938954;28;100206;-89
2024/03/07 04:12:10;;;;;;;63.63;26.48;;;;;;;7.82;57.79;102607.06;4939126;28;96547;-89
2024/03/07 04:14:37;;;;;;;65.13;26.25;;;;;;;7.80;57.78;102604.38;4939238;28;96651;-89
2024/03/07 04:17:03;;;;;;;72.13;28.05;;;;;;;7.79;57.76;102610.41;4939435;28;100356;-89
2024/03/07 04:19:30;;;;;;;67.85;28.75;;;;;;;7.75;57.77;102608.47;4932165;28;100161;-89
2024/03/07 04:21:56;;;;;;;68.70;26.08;;;;;;;7.73;58.00;102610.06;4915326;28;96852;-89
2024/03/07 04:24:22;;;;;;;65.65;25.38;;;;;;;7.73;57.75;102609.19;4911302;28;96931;-88
2024/03/07 04:26:47;;;;;;;69.13;25.42;;;;;;;7.72;57.88;102608.31;4915956;28;99749;-88
2024/03/07 04:29:13;;;;;;;66.20;26.85;;;;;;;7.71;57.81;102613.41;4930588;28;97810;-89
2024/03/07 04:31:38;;;;;;;69.00;28.60;;;;;;;7.70;57.96;102612.53;4935485;28;96798;-90
2024/03/07 04:34:04;;;;;;;71.65;27.95;;;;;;;7.68;57.93;102605.47;4920333;28;96907;-89
2024/03/07 04:36:32;;;;;;;69.97;28.02;;;;;;;7.67;58.02;102608.88;4929918;28;97730;-91
2024/03/07 04:38:57;;;;;;;64.43;26.80;;;;;;;7.65;58.21;102608.81;4914410;28;100232;-89
2024/03/07 04:41:24;;;;;;;64.22;25.52;;;;;;;7.65;58.15;102605.28;4931030;28;96696;-89
2024/03/07 04:43:49;;;;;;;65.15;27.45;;;;;;;7.62;58.21;102614.72;4917643;28;96980;-89
2024/03/07 04:46:15;;;;;;;63.05;26.25;;;;;;;7.63;58.40;102607.84;4913167;28;100668;-89
2024/03/07 04:48:41;;;;;;;64.88;27.75;;;;;;;7.63;58.12;102610.44;4913553;28;100371;-89
2024/03/07 04:51:06;;;;;;;62.85;27.40;;;;;;;7.63;58.09;102605.25;4942074;28;96687;-89
2024/03/07 04:53:32;;;;;;;62.60;25.15;;;;;;;7.64;58.46;102612.19;4943241;28;96596;-89
2024/03/07 04:55:58;;;;;;;62.50;25.38;;;;;;;7.63;58.35;102608.72;4944411;28;99980;-89
2024/03/07 04:58:23;;;;;;;65.15;25.38;;;;;;;7.65;58.35;102607.88;4937083;28;99679;-90
2024/03/07 05:00:49;;;;;;;66.07;24.88;;;;;;;7.65;58.21;102605.28;4920790;28;96878;-89
2024/03/07 05:03:14;;;;;;;62.83;27.25;;;;;;;7.65;58.07;102602.69;4920028;28;96741;-88
2024/03/07 05:05:41;;;;;;;68.47;26.08;;;;;;;7.65;58.11;102611.41;4920464;28;100161;-89
2024/03/07 05:08:06;;;;;;;60.50;25.13;;;;;;;7.66;58.35;102607.09;4921691;28;100393;-90
2024/03/07 05:10:32;;;;;;;65.07;25.45;;;;;;;7.65;58.23;102602.69;4923006;28;96623;-89
2024/03/07 05:12:58;;;;;;;66.43;26.73;;;;;;;7.65;58.21;102608.81;4921575;28;96639;-90
2024/03/07 05:15:25;;;;;;;68.82;26.00;;;;;;;7.65;58.29;102602.69;4936379;28;99285;-89
2024/03/07 05:17:56;;;;;;;70.50;26.27;;;;;;;7.63;58.09;102602.63;4921370;28;97754;-89
2024/03/07 05:20:21;;;;;;;68.13;28.33;;;;;;;7.62;58.18;102598.25;4931519;28;96793;-89
2024/03/07 05:22:50;;;;;;;68.38;27.15;;;;;;;7.61;58.09;102605.16;4918511;28;96951;-89
2024/03/07 05:25:16;;;;;;;60.17;24.58;;;;;;;7.60;58.25;102612.84;4917551;28;99459;-89
2024/03/07 05:27:42;;;;;;;73.57;27.23;;;;;;;7.58;58.16;102610.16;4948845;28;100751;-89
2024/03/07 05:30:11;;;;;;;63.33;27.27;;;;;;;7.57;58.20;102605.78;4936782;28;96822;-90
2024/03/07 05:32:40;;;;;;;69.15;26.95;;;;;;;7.55;58.20;102612.59;4956373;28;96797;-89
2024/03/07 05:35:07;;;;;;;62.78;26.05;;;;;;;7.54;58.29;102615.09;4924980;28;99867;-90
2024/03/07 05:37:32;;;;;;;66.97;26.02;;;;;;;7.53;58.23;102611.63;4945172;28;99919;-90
2024/03/07 05:39:59;;;;;;;62.88;25.40;;;;;;;7.52;58.24;102611.53;4943551;28;96822;-89
2024/03/07 05:42:25;;;;;;;64.05;24.65;;;;;;;7.49;58.18;102617.47;4945415;28;96915;-88
2024/03/07 05:44:53;;;;;;;65.60;26.90;;;;;;;7.47;58.20;102611.31;4941940;28;98969;-93
2024/03/07 05:47:19;;;;;;;65.13;25.30;;;;;;;7.47;57.97;102610.41;4925055;28;99276;-92
2024/03/07 05:49:45;;;;;;;71.95;26.55;;;;;;;7.44;58.14;102603.34;4925609;28;96732;-92
2024/03/07 05:52:10;;;;;;;65.43;26.88;;;;;;;7.43;58.16;102606.75;4925733;28;96904;-92
2024/03/07 05:54:36;;;;;;;63.60;27.45;;;;;;;7.42;58.09;102607.56;4941916;28;99019;-90
2024/03/07 05:57:02;;;;;;;59.97;23.98;;;;;;;7.41;58.11;102605.78;4947987;28;99704;-91
2024/03/07 05:59:31;;;;;;;64.53;26.80;;;;;;;7.38;58.24;102603.94;4926753;28;96819;-91
2024/03/07 06:01:57;;;;;;;67.72;27.02;;;;;;;7.37;58.23;102601.25;4922142;28;96785;-92
2024/03/07 06:04:23;;;;;;;67.25;25.70;;;;;;;7.36;58.14;102604.63;4941145;28;100762;-91
2024/03/07 06:06:49;;;;;;;67.10;26.95;;;;;;;7.34;58.19;102599.34;4941458;28;100491;-91
2024/03/07 06:09:21;;;;;;;64.57;25.08;;;;;;;7.32;58.02;102607.88;4946135;28;96966;-93
2024/03/07 06:11:47;;;;;;;68.70;27.65;;;;;;;7.29;58.00;102606.03;4949745;28;96679;-94
2024/03/07 06:14:13;;;;;;;63.08;25.75;;;;;;;7.26;58.25;102608.44;4926771;28;99777;-95
2024/03/07 06:16:40;;;;;;;65.43;28.05;;;;;;;7.25;58.30;102614.44;4945768;28;99241;-94
2024/03/07 06:19:08;;;;;;;63.70;26.98;;;;;;;7.23;58.31;102613.47;4929125;28;96685;-94
2024/03/07 06:21:35;;;;;;;68.35;26.48;;;;;;;7.22;58.36;102611.69;4944164;28;96875;-93
2024/03/07 06:24:02;;;;;;;64.47;27.77;;;;;;;7.20;58.32;102616.81;4928308;28;99522;-93
2024/03/07 06:29:07;;;;;;;66.30;24.83;;;;;;;7.19;58.47;102619.31;4947185;28;96675;-95
2024/03/07 06:31:33;;;;;;;64.32;27.27;;;;;;;7.17;58.61;102619.22;4931235;28;96645;-95
2024/03/07 06:34:00;;;;;;;68.50;27.70;;;;;;;7.17;58.55;102615.75;4946521;28;100400;-94
2024/03/07 06:36:25;;;;;;;65.07;25.65;;;;;;;7.17;58.53;102621.81;4930003;28;98580;-95
2024/03/07 06:38:51;;;;;;;67.65;28.70;;;;;;;7.16;58.95;102620.00;4932646;28;96775;-96
2024/03/07 06:41:17;;;;;;;64.20;27.55;;;;;;;7.18;58.52;102622.69;4946602;28;96854;-94
2024/03/07 06:43:44;;;;;;;64.82;25.52;;;;;;;7.17;58.70;102619.22;4930972;28;100390;-95
2024/03/07 06:46:12;;;;;;;67.47;26.27;;;;;;;7.16;58.78;102614.81;4930203;28;98777;-95
2024/03/07 06:48:41;;;;;;;67.32;26.25;;;;;;;7.20;58.82;102619.41;4930371;28;96796;-94
2024/03/07 06:51:07;;;;;;;58.08;24.27;;;;;;;7.22;58.68;102620.38;4927243;28;96751;-94
2024/03/07 06:53:33;;;;;;;63.08;26.35;;;;;;;7.22;58.60;102619.47;4960787;28;99006;-95
2024/03/07 06:55:59;;;;;;;65.10;24.65;;;;;;;7.24;58.61;102616.16;4949974;28;100035;-94
2024/03/07 06:58:26;;;;;;;65.28;26.65;;;;;;;7.26;58.78;102610.16;4962553;28;96570;-95
2024/03/07 07:00:54;;;;;;;61.08;24.35;;;;;;;7.29;58.92;102619.00;4929830;28;96663;-94
2024/03/07 07:03:22;;;;;;;58.20;24.73;;;;;;;7.31;59.05;102617.38;4927916;28;98971;-95
2024/03/07 07:05:48;;;;;;;66.80;25.52;;;;;;;7.36;58.92;102617.63;4935012;28;100047;-90
2024/03/07 07:08:14;;;;;;;59.10;24.88;;;;;;;7.39;58.81;102612.59;4938709;28;96564;-90
2024/03/07 07:10:40;;;;;;;67.72;25.00;;;;;;;7.43;59.02;102612.84;4939599;28;96577;-90
2024/03/07 07:13:06;;;;;;;59.13;24.10;;;;;;;7.48;58.86;102610.50;4938342;28;100276;-91
2024/03/07 07:15:32;;;;;;;62.28;24.27;;;;;;;7.54;59.00;102607.31;4939434;28;100529;-90
2024/03/07 07:17:59;;;;;;;57.42;24.35;;;;;;;7.61;59.08;102612.94;4924779;28;96549;-90
2024/03/07 07:20:25;;;;;;;59.78;23.13;;;;;;;7.64;58.99;102604.41;4925718;28;96862;-90
2024/03/07 07:22:52;;;;;;;53.65;24.63;;;;;;;7.68;58.98;102601.16;4945181;28;98991;-92
2024/03/07 07:25:20;;;;;;;58.33;22.70;;;;;;;7.74;59.08;102609.28;4929886;28;99185;-91
2024/03/07 07:27:48;;;;;;;61.58;26.90;;;;;;;7.80;58.84;102603.50;4927799;28;96729;-92
2024/03/07 07:30:15;;;;;;;63.30;26.05;;;;;;;7.85;58.99;102611.56;4944586;28;96701;-91
2024/03/07 07:32:42;;;;;;;55.90;22.60;;;;;;;7.92;59.26;102611.06;4928402;28;100392;-91
2024/03/07 07:35:11;;;;;;;59.22;26.33;;;;;;;7.99;59.01;102595.84;4944495;28;99600;-91
2024/03/07 07:37:48;;;;;;;58.55;23.88;;;;;;;8.08;59.04;102600.63;4928371;28;96612;-91
2024/03/07 07:40:19;;;;;;;56.97;26.13;;;;;;;8.16;58.92;102601.00;4927112;28;96750;-91
2024/03/07 07:42:46;;;;;;;58.97;23.08;;;;;;;8.26;58.98;102604.97;4927639;28;98997;-90
2024/03/07 07:45:16;;;;;;;54.10;23.70;;;;;;;8.37;59.20;102596.88;4927302;28;99819;-91
2024/03/07 07:47:53;;;;;;;54.40;23.33;;;;;;;8.50;59.04;102590.63;4942206;28;96680;-91
2024/03/07 07:50:51;;;;;;;53.85;22.88;;;;;;;8.67;59.40;102595.75;4941358;28;96801;-91
2024/03/07 07:53:17;;;;;;;54.85;22.60;;;;;;;8.88;60.23;102588.97;4942359;28;99988;-91
2024/03/07 07:55:43;;;;;;;54.72;24.10;;;;;;;9.17;60.96;102594.66;4926797;28;100246;-91
2024/03/07 07:58:09;;;;;;;48.08;23.52;;;;;;;9.51;60.99;102596.19;4943442;28;96705;-90
2024/03/07 08:04:40;;;;;;;51.13;23.77;;;;;;;10.30;61.21;102590.03;4957282;28;97364;-95
2024/03/07 08:07:07;;;;;;;49.17;23.55;;;;;;;10.59;60.82;102585.16;4944082;28;100295;-94
2024/03/07 08:09:32;;;;;;;48.35;21.83;;;;;;;10.85;60.15;102573.13;4928033;28;96829;-93
2024/03/07 08:12:02;;;;;;;43.60;22.08;;;;;;;11.09;58.70;102573.19;4950044;28;97064;-94
2024/03/07 08:14:29;;;;;;;43.42;22.20;;;;;;;11.28;57.62;102576.50;4942531;28;99440;-93
2024/03/07 08:16:56;;;;;;;44.85;21.33;;;;;;;11.41;57.16;102573.53;4941680;28;98677;-93
2024/03/07 08:19:21;;;;;;;49.17;22.75;;;;;;;11.55;56.69;102571.38;4924860;28;96991;-94
2024/03/07 08:21:47;;;;;;;38.03;19.63;;;;;;;11.69;56.45;102582.34;4928661;28;96858;-94
2024/03/07 08:24:15;;;;;;;38.17;20.02;;;;;;;11.82;55.85;102575.00;4949302;28;99337;-93
2024/03/07 08:26:44;;;;;;;41.80;19.55;;;;;;;11.97;55.76;102581.63;4945880;28;96767;-94
2024/03/07 08:29:10;;;;;;;38.00;18.88;;;;;;;12.13;55.85;102576.06;4945387;28;96919;-93
2024/03/07 08:31:35;;;;;;;38.60;20.40;;;;;;;12.32;55.72;102569.75;4946804;28;96878;-90
2024/03/07 08:34:01;;;;;;;35.58;19.30;;;;;;;12.47;55.38;102565.84;4940187;28;100266;-90
2024/03/07 08:36:26;;;;;;;35.97;18.02;;;;;;;12.60;55.81;102562.75;4941429;28;99408;-90
2024/03/07 08:38:52;;;;;;;35.67;17.60;;;;;;;12.79;55.84;102572.09;4941078;28;96755;-91
2024/03/07 08:41:18;;;;;;;34.95;18.38;;;;;;;12.98;55.11;102565.69;4941116;28;96927;-91
2024/03/07 08:43:43;;;;;;;32.92;17.88;;;;;;;13.14;54.63;102578.41;4939733;28;99889;-90
2024/03/07 08:46:11;;;;;;;35.60;18.17;;;;;;;13.21;53.05;102576.84;4924549;28;99833;-89
2024/03/07 08:48:37;;;;;;;31.45;16.70;;;;;;;13.20;51.98;102582.94;4940679;28;96567;-91
2024/03/07 08:51:02;;;;;;;35.05;16.98;;;;;;;13.12;51.25;102587.06;4940975;28;96598;-90
2024/03/07 08:53:28;;;;;;;31.15;16.42;;;;;;;13.01;50.91;102570.13;4939814;28;100558;-90
2024/03/07 08:55:53;;;;;;;30.40;15.77;;;;;;;12.90;51.13;102575.03;4939422;28;100281;-90
2024/03/07 08:58:20;;;;;;;33.50;18.55;;;;;;;12.86;51.10;102566.19;4923560;28;96881;-90
2024/03/07 09:00:45;;;;;;;33.15;18.08;;;;;;;12.83;51.26;102567.84;4953060;28;96930;-90
2024/03/07 09:03:11;;;;;;;32.45;17.75;;;;;;;12.80;50.82;102566.03;4930924;28;100606;-89
2024/03/07 09:05:37;;;;;;;27.27;14.90;;;;;;;12.76;51.14;102570.28;4937561;28;100123;-89
2024/03/07 09:08:03;;;;;;;27.70;15.75;;;;;;;12.77;51.16;102573.78;4938144;28;96778;-88
2024/03/07 09:10:31;;;;;;;32.53;17.80;;;;;;;12.76;50.89;102571.97;4939214;28;96819;-89
2024/03/07 09:12:58;;;;;;;27.70;15.05;;;;;;;12.77;50.48;102572.03;4939245;28;100546;-88
2024/03/07 09:15:23;;;;;;;27.17;16.27;;;;;;;12.77;50.55;102558.06;4938663;28;100420;-90
2024/03/07 09:17:49;;;;;;;28.23;15.98;;;;;;;12.79;50.58;102560.72;4941841;28;96576;-89
2024/03/07 09:20:14;;;;;;;29.48;15.07;;;;;;;12.81;50.48;102549.44;4925270;28;96883;-89
2024/03/07 09:22:41;;;;;;;27.23;16.27;;;;;;;12.85;50.07;102558.28;4940475;28;100210;-88
2024/03/07 09:25:08;;;;;;;25.65;14.77;;;;;;;12.85;49.83;102555.66;4935323;28;99577;-88
2024/03/07 09:27:33;;;;;;;26.13;13.98;;;;;;;12.85;50.09;102553.06;4944488;28;96869;-89
2024/03/07 09:29:59;;;;;;;22.85;14.15;;;;;;;12.87;49.60;102541.81;4931785;28;96904;-89
2024/03/07 09:32:24;;;;;;;25.75;12.95;;;;;;;12.88;49.50;102542.69;4937302;28;99047;-89
2024/03/07 09:34:50;;;;;;;23.13;13.27;;;;;;;12.89;49.59;102542.72;4937868;28;99990;-89
2024/03/07 09:37:17;;;;;;;25.05;14.88;;;;;;;12.92;49.42;102540.22;4941394;28;96826;-89
2024/03/07 09:39:46;;;;;;;25.67;13.80;;;;;;;13.00;49.46;102542.16;4942438;28;96898;-90
2024/03/07 09:42:17;;;;;;;23.20;13.10;;;;;;;13.09;49.26;102537.19;4941936;28;99209;-89
2024/03/07 09:44:45;;;;;;;24.38;12.38;;;;;;;13.23;48.70;102540.22;4925663;28;100468;-89
2024/03/07 09:47:13;;;;;;;25.08;14.63;;;;;;;13.23;48.28;102533.25;4926075;28;96891;-89
2024/03/07 09:49:39;;;;;;;21.92;11.80;;;;;;;13.27;48.55;102535.09;4926427;28;96972;-89
2024/03/07 09:52:11;;;;;;;23.30;13.75;;;;;;;13.35;48.83;102529.22;4925720;28;100329;-89
2024/03/07 09:54:38;;;;;;;23.20;13.55;;;;;;;13.51;49.86;102531.41;4941918;28;99917;-89
2024/03/07 09:57:07;;;;;;;25.05;14.57;;;;;;;13.76;50.01;102532.97;4925849;28;96717;-90
2024/03/07 09:59:40;;;;;;;24.70;12.63;;;;;;;14.03;50.23;102524.94;4953842;28;96856;-89
2024/03/07 10:02:07;;;;;;;24.70;14.57;;;;;;;14.27;49.59;102523.75;4952768;28;100249;-88
2024/03/07 10:04:48;;;;;;;25.15;12.18;;;;;;;14.40;48.02;102517.03;4940939;28;100572;-89
2024/03/07 10:07:18;;;;;;;22.75;12.80;;;;;;;14.40;46.77;102519.66;4931545;28;96843;-90
2024/03/07 10:09:44;;;;;;;21.90;12.43;;;;;;;14.30;45.99;102520.31;4945486;28;96914;-88
2024/03/07 10:12:12;;;;;;;24.48;13.38;;;;;;;14.22;46.25;102525.38;4950323;28;100460;-89
2024/03/07 10:14:38;;;;;;;24.58;12.88;;;;;;;14.16;46.28;102518.25;4924634;28;100411;-90
2024/03/07 10:17:05;;;;;;;26.23;14.43;;;;;;;14.11;46.04;102509.38;4922990;28;96753;-91
2024/03/07 10:19:31;;;;;;;24.80;13.73;;;;;;;14.13;45.97;102515.53;4925116;28;96832;-88
2024/03/07 10:22:01;;;;;;;25.90;13.25;;;;;;;14.19;46.20;102510.44;4940050;28;97748;-89
2024/03/07 10:24:27;;;;;;;24.58;13.63;;;;;;;14.33;46.16;102499.38;4940635;28;99790;-89
2024/03/07 10:26:56;;;;;;;26.42;14.27;;;;;;;14.42;45.51;102503.13;4932412;28;96777;-89
2024/03/07 10:29:23;;;;;;;25.85;12.43;;;;;;;14.46;45.83;102506.69;4925865;28;97074;-89
2024/03/07 10:32:10;;;;;;;26.15;14.05;;;;;;;14.45;45.31;102497.91;4926008;28;99137;-88
2024/03/07 10:34:36;;;;;;;24.80;14.43;;;;;;;14.46;45.38;102486.56;4942201;28;99708;-88
2024/03/07 10:37:03;;;;;;;24.75;14.25;;;;;;;14.45;45.77;102486.53;4925981;28;96811;-88
2024/03/07 10:39:31;;;;;;;25.35;13.32;;;;;;;14.52;46.03;102485.81;4928978;28;97019;-88
2024/03/07 10:42:05;;;;;;;24.83;14.15;;;;;;;14.63;45.89;102484.38;4956171;28;100495;-89
2024/03/07 10:44:32;;;;;;;23.05;13.85;;;;;;;14.80;46.30;102483.84;4941179;28;100012;-88
2024/03/07 10:47:00;;;;;;;23.48;12.57;;;;;;;14.98;45.88;102478.09;4940630;28;96620;-89
2024/03/07 10:49:28;;;;;;;22.85;12.07;;;;;;;15.18;45.47;102475.84;4940252;28;96967;-88
2024/03/07 10:52:14;;;;;;;25.90;12.13;;;;;;;15.32;44.74;102476.13;4943467;28;99951;-88
2024/03/07 10:55:00;;;;;;;24.80;13.65;;;;;;;15.45;44.28;102475.47;4940838;28;100484;-87
2024/03/07 10:57:55;;;;;;;19.67;12.13;;;;;;;15.63;45.02;102460.88;4960101;28;96796;-88
2024/03/07 11:00:31;;;;;;;20.73;13.00;;;;;;;15.80;43.75;102468.25;4931967;28;96897;-88
2024/03/07 11:02:57;;;;;;;23.20;11.38;;;;;;;15.83;43.46;102464.78;4941625;28;96599;-88
2024/03/07 11:05:31;;;;;;;24.13;12.20;;;;;;;15.94;43.12;102459.72;4940799;28;100560;-88
2024/03/07 11:08:07;;;;;;;22.42;12.52;;;;;;;16.04;42.91;102463.34;4940648;28;96708;-88
2024/03/07 11:10:33;;;;;;;;;;;;;;;16.16;43.58;102468.81;4925558;28;96712;-88
2024/03/07 11:13:00;;;;;;;23.45;12.65;;;;;;;16.15;41.90;102457.41;4940252;28;100245;-88
2024/03/07 11:15:27;;;;;;;22.33;12.23;;;;;;;16.11;41.61;102454.69;4931680;28;101052;-89
2024/03/07 11:17:55;;;;;;;24.50;13.43;;;;;;;16.21;42.06;102455.72;4921854;28;96726;-88
2024/03/07 11:20:25;;;;;;;24.35;13.43;;;;;;;16.38;42.17;102446.31;4937516;28;96872;-88
2024/03/07 11:22:53;;;;;;;21.38;11.68;;;;;;;16.50;41.26;102450.88;4938354;28;100440;-89
2024/03/07 11:25:21;;;;;;;20.27;11.30;;;;;;;16.54;40.60;102453.56;4937103;28;99248;-88
2024/03/07 11:27:55;;;;;;;23.58;11.93;;;;;;;16.43;40.56;102438.47;4938183;28;96902;-87
2024/03/07 11:30:22;;;;;;;20.63;12.25;;;;;;;16.49;40.77;102446.47;4937971;28;96847;-88
2024/03/07 11:32:56;;;;;;;22.17;12.25;;;;;;;16.49;39.78;102443.84;4943782;28;101089;-89
2024/03/07 11:35:35;;;;;;;25.08;12.13;;;;;;;16.24;39.34;102432.97;4927299;28;100580;-88